sensor_id;sensor_type;location;lat;lon;timestamp;P1;durP1;ratioP1;P2;durP2;ratioP2
57029;SDS011;42920;45.306;20.448;2023-09-18T00:01:56;10.57;;;7.85;;
57029;SDS011;42920;45.306;20.448;2023-09-18T00:04:22;10.75;;;7.80;;
57029;SDS011;42920;45.306;20.448;2023-09-18T00:06:47;13.05;;;8.40;;
57029;SDS011;42920;45.306;20.448;2023-09-18T00:09:13;11.27;;;8.10;;
57029;SDS011;42920;45.306;20.448;2023-09-18T00:11:39;17.33;;;9.55;;
57029;SDS011;42920;45.306;20.448;2023-09-18T00:14:05;14.50;;;8.30;;
57029;SDS011;42920;45.306;20.448;2023-09-18T00:16:32;10.40;;;7.85;;
57029;SDS011;42920;45.306;20.448;2023-09-18T00:18:58;12.48;;;8.18;;
57029;SDS011;42920;45.306;20.448;2023-09-18T00:21:24;15.30;;;9.00;;
57029;SDS011;42920;45.306;20.448;2023-09-18T00:23:50;14.77;;;9.25;;
57029;SDS011;42920;45.306;20.448;2023-09-18T00:26:17;13.27;;;8.63;;
57029;SDS011;42920;45.306;20.448;2023-09-18T00:28:42;18.27;;;9.18;;
57029;SDS011;42920;45.306;20.448;2023-09-18T00:31:08;13.45;;;8.40;;
57029;SDS011;42920;45.306;20.448;2023-09-18T00:33:35;12.35;;;8.93;;
57029;SDS011;42920;45.306;20.448;2023-09-18T00:36:00;15.55;;;9.23;;
57029;SDS011;42920;45.306;20.448;2023-09-18T00:38:26;14.93;;;9.23;;
57029;SDS011;42920;45.306;20.448;2023-09-18T00:40:52;18.25;;;9.68;;
57029;SDS011;42920;45.306;20.448;2023-09-18T00:43:18;14.02;;;8.85;;
57029;SDS011;42920;45.306;20.448;2023-09-18T00:45:47;12.70;;;8.90;;
57029;SDS011;42920;45.306;20.448;2023-09-18T00:48:14;16.30;;;9.60;;
57029;SDS011;42920;45.306;20.448;2023-09-18T00:50:40;18.60;;;9.90;;
57029;SDS011;42920;45.306;20.448;2023-09-18T00:53:08;12.48;;;9.13;;
57029;SDS011;42920;45.306;20.448;2023-09-18T00:55:36;11.95;;;8.45;;
57029;SDS011;42920;45.306;20.448;2023-09-18T00:58:03;15.57;;;9.82;;
57029;SDS011;42920;45.306;20.448;2023-09-18T01:00:30;13.80;;;8.57;;
57029;SDS011;42920;45.306;20.448;2023-09-18T01:02:56;14.32;;;9.23;;
57029;SDS011;42920;45.306;20.448;2023-09-18T01:05:21;14.68;;;9.55;;
57029;SDS011;42920;45.306;20.448;2023-09-18T01:07:47;14.52;;;9.38;;
57029;SDS011;42920;45.306;20.448;2023-09-18T01:10:13;15.70;;;8.48;;
57029;SDS011;42920;45.306;20.448;2023-09-18T01:12:55;12.85;;;8.80;;
57029;SDS011;42920;45.306;20.448;2023-09-18T01:15:32;11.80;;;8.65;;
57029;SDS011;42920;45.306;20.448;2023-09-18T01:18:02;14.52;;;8.82;;
57029;SDS011;42920;45.306;20.448;2023-09-18T01:20:28;13.27;;;9.48;;
57029;SDS011;42920;45.306;20.448;2023-09-18T01:22:54;15.43;;;8.75;;
57029;SDS011;42920;45.306;20.448;2023-09-18T01:25:19;12.40;;;9.05;;
57029;SDS011;42920;45.306;20.448;2023-09-18T01:27:45;14.45;;;9.68;;
57029;SDS011;42920;45.306;20.448;2023-09-18T01:30:11;12.75;;;9.52;;
57029;SDS011;42920;45.306;20.448;2023-09-18T01:32:38;13.45;;;9.13;;
57029;SDS011;42920;45.306;20.448;2023-09-18T01:35:05;14.77;;;9.65;;
57029;SDS011;42920;45.306;20.448;2023-09-18T01:37:33;16.52;;;9.88;;
57029;SDS011;42920;45.306;20.448;2023-09-18T01:40:00;16.75;;;10.27;;
57029;SDS011;42920;45.306;20.448;2023-09-18T01:42:31;12.82;;;9.65;;
57029;SDS011;42920;45.306;20.448;2023-09-18T01:44:58;12.70;;;9.10;;
57029;SDS011;42920;45.306;20.448;2023-09-18T01:47:24;11.63;;;8.55;;
57029;SDS011;42920;45.306;20.448;2023-09-18T01:49:52;12.48;;;9.50;;
57029;SDS011;42920;45.306;20.448;2023-09-18T01:52:18;12.93;;;8.98;;
57029;SDS011;42920;45.306;20.448;2023-09-18T01:54:43;14.38;;;9.05;;
57029;SDS011;42920;45.306;20.448;2023-09-18T01:57:09;19.40;;;9.23;;
57029;SDS011;42920;45.306;20.448;2023-09-18T01:59:37;12.63;;;8.80;;
57029;SDS011;42920;45.306;20.448;2023-09-18T02:02:02;14.57;;;10.20;;
57029;SDS011;42920;45.306;20.448;2023-09-18T02:04:31;12.82;;;9.05;;
57029;SDS011;42920;45.306;20.448;2023-09-18T02:06:57;16.08;;;10.65;;
57029;SDS011;42920;45.306;20.448;2023-09-18T02:09:23;16.30;;;10.38;;
57029;SDS011;42920;45.306;20.448;2023-09-18T02:11:49;12.93;;;9.57;;
57029;SDS011;42920;45.306;20.448;2023-09-18T02:14:14;16.45;;;10.18;;
57029;SDS011;42920;45.306;20.448;2023-09-18T02:16:41;15.90;;;9.18;;
57029;SDS011;42920;45.306;20.448;2023-09-18T02:19:11;14.38;;;9.82;;
57029;SDS011;42920;45.306;20.448;2023-09-18T02:21:39;15.25;;;9.85;;
57029;SDS011;42920;45.306;20.448;2023-09-18T02:24:05;15.40;;;9.85;;
57029;SDS011;42920;45.306;20.448;2023-09-18T02:26:32;15.52;;;9.73;;
57029;SDS011;42920;45.306;20.448;2023-09-18T02:28:58;16.77;;;10.70;;
57029;SDS011;42920;45.306;20.448;2023-09-18T02:31:25;14.68;;;10.07;;
57029;SDS011;42920;45.306;20.448;2023-09-18T02:33:51;14.10;;;9.23;;
57029;SDS011;42920;45.306;20.448;2023-09-18T02:36:16;14.27;;;9.95;;
57029;SDS011;42920;45.306;20.448;2023-09-18T02:38:42;12.40;;;9.27;;
57029;SDS011;42920;45.306;20.448;2023-09-18T02:41:08;15.77;;;9.63;;
57029;SDS011;42920;45.306;20.448;2023-09-18T02:43:35;17.13;;;9.55;;
57029;SDS011;42920;45.306;20.448;2023-09-18T02:46:02;13.15;;;9.13;;
57029;SDS011;42920;45.306;20.448;2023-09-18T02:48:29;15.35;;;10.90;;
57029;SDS011;42920;45.306;20.448;2023-09-18T02:50:55;16.20;;;10.15;;
57029;SDS011;42920;45.306;20.448;2023-09-18T02:53:22;13.07;;;9.65;;
57029;SDS011;42920;45.306;20.448;2023-09-18T02:55:52;19.55;;;11.02;;
57029;SDS011;42920;45.306;20.448;2023-09-18T02:58:23;14.95;;;10.75;;
57029;SDS011;42920;45.306;20.448;2023-09-18T03:00:51;13.60;;;10.23;;
57029;SDS011;42920;45.306;20.448;2023-09-18T03:03:24;12.88;;;8.77;;
57029;SDS011;42920;45.306;20.448;2023-09-18T03:05:51;18.08;;;10.23;;
57029;SDS011;42920;45.306;20.448;2023-09-18T03:08:16;17.80;;;10.30;;
57029;SDS011;42920;45.306;20.448;2023-09-18T03:10:42;17.20;;;10.45;;
57029;SDS011;42920;45.306;20.448;2023-09-18T03:13:09;13.95;;;9.52;;
57029;SDS011;42920;45.306;20.448;2023-09-18T03:15:36;22.17;;;10.48;;
57029;SDS011;42920;45.306;20.448;2023-09-18T03:18:02;18.88;;;9.88;;
57029;SDS011;42920;45.306;20.448;2023-09-18T03:20:29;14.48;;;10.40;;
57029;SDS011;42920;45.306;20.448;2023-09-18T03:22:56;15.73;;;10.32;;
57029;SDS011;42920;45.306;20.448;2023-09-18T03:25:23;11.98;;;9.80;;
57029;SDS011;42920;45.306;20.448;2023-09-18T03:27:50;15.57;;;10.13;;
57029;SDS011;42920;45.306;20.448;2023-09-18T03:30:18;14.00;;;9.55;;
57029;SDS011;42920;45.306;20.448;2023-09-18T03:32:44;14.50;;;9.23;;
57029;SDS011;42920;45.306;20.448;2023-09-18T03:35:13;14.02;;;9.93;;
57029;SDS011;42920;45.306;20.448;2023-09-18T03:37:44;16.08;;;9.45;;
57029;SDS011;42920;45.306;20.448;2023-09-18T03:40:10;14.57;;;9.52;;
57029;SDS011;42920;45.306;20.448;2023-09-18T03:42:36;17.00;;;10.55;;
57029;SDS011;42920;45.306;20.448;2023-09-18T03:45:02;15.77;;;9.95;;
57029;SDS011;42920;45.306;20.448;2023-09-18T03:47:28;17.65;;;9.65;;
57029;SDS011;42920;45.306;20.448;2023-09-18T03:49:54;17.13;;;9.13;;
57029;SDS011;42920;45.306;20.448;2023-09-18T03:52:19;18.38;;;11.27;;
57029;SDS011;42920;45.306;20.448;2023-09-18T03:54:45;16.85;;;9.98;;
57029;SDS011;42920;45.306;20.448;2023-09-18T03:57:11;16.10;;;10.68;;
57029;SDS011;42920;45.306;20.448;2023-09-18T03:59:36;20.65;;;9.68;;
57029;SDS011;42920;45.306;20.448;2023-09-18T04:02:02;14.45;;;9.70;;
57029;SDS011;42920;45.306;20.448;2023-09-18T04:04:28;15.98;;;9.80;;
57029;SDS011;42920;45.306;20.448;2023-09-18T04:06:55;16.05;;;10.05;;
57029;SDS011;42920;45.306;20.448;2023-09-18T04:09:20;17.25;;;10.65;;
57029;SDS011;42920;45.306;20.448;2023-09-18T04:11:46;17.92;;;10.07;;
57029;SDS011;42920;45.306;20.448;2023-09-18T04:14:12;14.98;;;8.93;;
57029;SDS011;42920;45.306;20.448;2023-09-18T04:16:37;14.85;;;9.73;;
57029;SDS011;42920;45.306;20.448;2023-09-18T04:19:06;19.73;;;11.02;;
57029;SDS011;42920;45.306;20.448;2023-09-18T04:21:33;17.35;;;10.32;;
57029;SDS011;42920;45.306;20.448;2023-09-18T04:23:59;17.30;;;10.48;;
57029;SDS011;42920;45.306;20.448;2023-09-18T04:26:25;15.50;;;10.32;;
57029;SDS011;42920;45.306;20.448;2023-09-18T04:28:55;23.67;;;10.68;;
57029;SDS011;42920;45.306;20.448;2023-09-18T04:31:21;13.63;;;9.60;;
57029;SDS011;42920;45.306;20.448;2023-09-18T04:33:47;20.05;;;10.00;;
57029;SDS011;42920;45.306;20.448;2023-09-18T04:36:14;16.65;;;10.82;;
57029;SDS011;42920;45.306;20.448;2023-09-18T04:38:40;16.73;;;10.50;;
57029;SDS011;42920;45.306;20.448;2023-09-18T04:41:06;20.33;;;11.02;;
57029;SDS011;42920;45.306;20.448;2023-09-18T04:43:36;20.55;;;10.63;;
57029;SDS011;42920;45.306;20.448;2023-09-18T04:46:05;21.92;;;10.35;;
57029;SDS011;42920;45.306;20.448;2023-09-18T04:48:31;16.08;;;10.35;;
57029;SDS011;42920;45.306;20.448;2023-09-18T04:50:57;20.02;;;10.48;;
57029;SDS011;42920;45.306;20.448;2023-09-18T04:53:24;16.77;;;10.32;;
57029;SDS011;42920;45.306;20.448;2023-09-18T04:55:50;16.60;;;11.20;;
57029;SDS011;42920;45.306;20.448;2023-09-18T04:58:18;16.30;;;10.98;;
57029;SDS011;42920;45.306;20.448;2023-09-18T05:00:44;21.02;;;11.07;;
57029;SDS011;42920;45.306;20.448;2023-09-18T05:03:11;35.53;;;30.05;;
57029;SDS011;42920;45.306;20.448;2023-09-18T05:05:38;41.20;;;32.53;;
57029;SDS011;42920;45.306;20.448;2023-09-18T05:08:06;24.42;;;18.20;;
57029;SDS011;42920;45.306;20.448;2023-09-18T05:10:38;18.48;;;12.90;;
57029;SDS011;42920;45.306;20.448;2023-09-18T05:13:04;15.95;;;10.65;;
57029;SDS011;42920;45.306;20.448;2023-09-18T05:15:30;15.73;;;9.98;;
57029;SDS011;42920;45.306;20.448;2023-09-18T05:17:56;13.63;;;10.05;;
57029;SDS011;42920;45.306;20.448;2023-09-18T05:20:26;14.52;;;9.55;;
57029;SDS011;42920;45.306;20.448;2023-09-18T05:22:54;18.90;;;9.82;;
57029;SDS011;42920;45.306;20.448;2023-09-18T05:25:21;13.60;;;9.90;;
57029;SDS011;42920;45.306;20.448;2023-09-18T05:27:48;17.45;;;9.50;;
57029;SDS011;42920;45.306;20.448;2023-09-18T05:30:23;19.95;;;9.85;;
57029;SDS011;42920;45.306;20.448;2023-09-18T05:32:54;13.38;;;9.68;;
57029;SDS011;42920;45.306;20.448;2023-09-18T05:35:21;17.15;;;9.68;;
57029;SDS011;42920;45.306;20.448;2023-09-18T05:37:48;16.13;;;9.55;;
57029;SDS011;42920;45.306;20.448;2023-09-18T05:40:16;14.82;;;10.05;;
57029;SDS011;42920;45.306;20.448;2023-09-18T05:42:42;15.50;;;8.40;;
57029;SDS011;42920;45.306;20.448;2023-09-18T05:45:09;14.32;;;7.95;;
57029;SDS011;42920;45.306;20.448;2023-09-18T05:47:36;11.70;;;8.50;;
57029;SDS011;42920;45.306;20.448;2023-09-18T05:50:03;17.70;;;9.07;;
57029;SDS011;42920;45.306;20.448;2023-09-18T05:52:33;11.18;;;8.07;;
57029;SDS011;42920;45.306;20.448;2023-09-18T05:55:00;19.50;;;9.27;;
57029;SDS011;42920;45.306;20.448;2023-09-18T05:57:26;19.00;;;8.38;;
57029;SDS011;42920;45.306;20.448;2023-09-18T05:59:57;18.20;;;7.68;;
57029;SDS011;42920;45.306;20.448;2023-09-18T06:02:23;10.40;;;7.40;;
57029;SDS011;42920;45.306;20.448;2023-09-18T06:04:53;11.80;;;7.43;;
57029;SDS011;42920;45.306;20.448;2023-09-18T06:07:21;15.18;;;7.53;;
57029;SDS011;42920;45.306;20.448;2023-09-18T06:09:48;15.10;;;7.05;;
57029;SDS011;42920;45.306;20.448;2023-09-18T06:12:13;12.45;;;7.13;;
57029;SDS011;42920;45.306;20.448;2023-09-18T06:14:39;11.40;;;7.63;;
57029;SDS011;42920;45.306;20.448;2023-09-18T06:17:05;10.63;;;7.60;;
57029;SDS011;42920;45.306;20.448;2023-09-18T06:19:31;11.23;;;6.75;;
57029;SDS011;42920;45.306;20.448;2023-09-18T06:21:58;17.80;;;8.20;;
57029;SDS011;42920;45.306;20.448;2023-09-18T06:24:23;13.80;;;7.57;;
57029;SDS011;42920;45.306;20.448;2023-09-18T06:26:49;13.90;;;7.63;;
57029;SDS011;42920;45.306;20.448;2023-09-18T06:29:16;16.58;;;7.57;;
57029;SDS011;42920;45.306;20.448;2023-09-18T06:31:41;12.55;;;7.03;;
57029;SDS011;42920;45.306;20.448;2023-09-18T06:34:07;16.38;;;8.18;;
57029;SDS011;42920;45.306;20.448;2023-09-18T06:36:33;17.80;;;6.65;;
57029;SDS011;42920;45.306;20.448;2023-09-18T06:38:59;8.77;;;6.22;;
57029;SDS011;42920;45.306;20.448;2023-09-18T06:41:24;9.80;;;6.15;;
57029;SDS011;42920;45.306;20.448;2023-09-18T06:43:50;16.55;;;6.55;;
57029;SDS011;42920;45.306;20.448;2023-09-18T06:46:16;17.83;;;7.35;;
57029;SDS011;42920;45.306;20.448;2023-09-18T06:48:41;15.65;;;7.38;;
57029;SDS011;42920;45.306;20.448;2023-09-18T06:51:10;11.75;;;6.82;;
57029;SDS011;42920;45.306;20.448;2023-09-18T06:53:36;9.75;;;6.55;;
57029;SDS011;42920;45.306;20.448;2023-09-18T06:56:02;13.43;;;6.88;;
57029;SDS011;42920;45.306;20.448;2023-09-18T06:58:28;10.48;;;6.50;;
57029;SDS011;42920;45.306;20.448;2023-09-18T07:00:53;19.70;;;7.45;;
57029;SDS011;42920;45.306;20.448;2023-09-18T07:03:19;13.30;;;6.50;;
57029;SDS011;42920;45.306;20.448;2023-09-18T07:05:45;10.10;;;6.93;;
57029;SDS011;42920;45.306;20.448;2023-09-18T07:08:11;16.60;;;7.47;;
57029;SDS011;42920;45.306;20.448;2023-09-18T07:10:38;14.25;;;7.28;;
57029;SDS011;42920;45.306;20.448;2023-09-18T07:13:05;13.85;;;7.13;;
57029;SDS011;42920;45.306;20.448;2023-09-18T07:15:30;13.52;;;8.30;;
57029;SDS011;42920;45.306;20.448;2023-09-18T07:17:57;13.23;;;7.20;;
57029;SDS011;42920;45.306;20.448;2023-09-18T07:20:23;9.45;;;6.65;;
57029;SDS011;42920;45.306;20.448;2023-09-18T07:22:49;10.95;;;6.60;;
57029;SDS011;42920;45.306;20.448;2023-09-18T07:25:16;12.05;;;6.28;;
57029;SDS011;42920;45.306;20.448;2023-09-18T07:27:42;16.48;;;6.45;;
57029;SDS011;42920;45.306;20.448;2023-09-18T07:30:11;15.48;;;7.47;;
57029;SDS011;42920;45.306;20.448;2023-09-18T07:32:42;12.70;;;7.07;;
57029;SDS011;42920;45.306;20.448;2023-09-18T07:35:09;15.30;;;6.95;;
57029;SDS011;42920;45.306;20.448;2023-09-18T07:37:35;20.05;;;7.28;;
57029;SDS011;42920;45.306;20.448;2023-09-18T07:40:05;7.30;;;5.97;;
57029;SDS011;42920;45.306;20.448;2023-09-18T07:42:32;11.07;;;6.40;;
57029;SDS011;42920;45.306;20.448;2023-09-18T07:44:58;11.23;;;6.63;;
57029;SDS011;42920;45.306;20.448;2023-09-18T07:47:24;17.40;;;6.57;;
57029;SDS011;42920;45.306;20.448;2023-09-18T07:49:50;16.77;;;7.13;;
57029;SDS011;42920;45.306;20.448;2023-09-18T07:52:16;11.68;;;6.88;;
57029;SDS011;42920;45.306;20.448;2023-09-18T07:54:43;15.57;;;6.60;;
57029;SDS011;42920;45.306;20.448;2023-09-18T07:57:09;8.70;;;6.90;;
57029;SDS011;42920;45.306;20.448;2023-09-18T07:59:35;12.07;;;6.88;;
57029;SDS011;42920;45.306;20.448;2023-09-18T08:02:01;16.23;;;7.00;;
57029;SDS011;42920;45.306;20.448;2023-09-18T08:04:30;10.98;;;6.50;;
57029;SDS011;42920;45.306;20.448;2023-09-18T08:06:57;9.50;;;5.90;;
57029;SDS011;42920;45.306;20.448;2023-09-18T08:09:23;16.23;;;6.97;;
57029;SDS011;42920;45.306;20.448;2023-09-18T08:11:48;13.02;;;6.97;;
57029;SDS011;42920;45.306;20.448;2023-09-18T08:14:15;18.25;;;7.15;;
57029;SDS011;42920;45.306;20.448;2023-09-18T08:16:42;9.73;;;6.57;;
57029;SDS011;42920;45.306;20.448;2023-09-18T08:19:07;15.20;;;7.22;;
57029;SDS011;42920;45.306;20.448;2023-09-18T08:21:34;13.70;;;6.55;;
57029;SDS011;42920;45.306;20.448;2023-09-18T08:24:00;14.02;;;6.32;;
57029;SDS011;42920;45.306;20.448;2023-09-18T08:26:26;14.60;;;7.15;;
57029;SDS011;42920;45.306;20.448;2023-09-18T08:28:53;10.77;;;6.93;;
57029;SDS011;42920;45.306;20.448;2023-09-18T08:31:19;14.00;;;6.35;;
57029;SDS011;42920;45.306;20.448;2023-09-18T08:33:45;11.27;;;6.63;;
57029;SDS011;42920;45.306;20.448;2023-09-18T08:36:10;15.82;;;6.85;;
57029;SDS011;42920;45.306;20.448;2023-09-18T08:38:37;10.30;;;6.80;;
57029;SDS011;42920;45.306;20.448;2023-09-18T08:41:03;9.30;;;6.68;;
57029;SDS011;42920;45.306;20.448;2023-09-18T08:43:31;12.60;;;7.13;;
57029;SDS011;42920;45.306;20.448;2023-09-18T08:45:57;10.45;;;6.38;;
57029;SDS011;42920;45.306;20.448;2023-09-18T08:48:26;12.02;;;6.15;;
57029;SDS011;42920;45.306;20.448;2023-09-18T08:51:03;14.32;;;6.93;;
57029;SDS011;42920;45.306;20.448;2023-09-18T08:53:33;13.57;;;7.00;;
57029;SDS011;42920;45.306;20.448;2023-09-18T08:56:01;14.68;;;7.35;;
57029;SDS011;42920;45.306;20.448;2023-09-18T08:58:32;9.52;;;6.18;;
57029;SDS011;42920;45.306;20.448;2023-09-18T09:01:01;9.70;;;6.25;;
57029;SDS011;42920;45.306;20.448;2023-09-18T09:03:29;16.02;;;6.82;;
57029;SDS011;42920;45.306;20.448;2023-09-18T09:05:55;11.75;;;5.93;;
57029;SDS011;42920;45.306;20.448;2023-09-18T09:08:22;12.77;;;6.00;;
57029;SDS011;42920;45.306;20.448;2023-09-18T09:10:48;10.63;;;6.28;;
57029;SDS011;42920;45.306;20.448;2023-09-18T09:13:15;11.98;;;6.15;;
57029;SDS011;42920;45.306;20.448;2023-09-18T09:15:44;9.82;;;6.35;;
57029;SDS011;42920;45.306;20.448;2023-09-18T09:18:11;9.93;;;6.20;;
57029;SDS011;42920;45.306;20.448;2023-09-18T09:20:39;14.65;;;7.00;;
57029;SDS011;42920;45.306;20.448;2023-09-18T09:23:08;12.32;;;7.13;;
57029;SDS011;42920;45.306;20.448;2023-09-18T09:25:35;11.07;;;6.72;;
57029;SDS011;42920;45.306;20.448;2023-09-18T09:28:05;14.30;;;6.65;;
57029;SDS011;42920;45.306;20.448;2023-09-18T09:30:34;11.18;;;7.45;;
57029;SDS011;42920;45.306;20.448;2023-09-18T09:33:02;13.68;;;6.40;;
57029;SDS011;42920;45.306;20.448;2023-09-18T09:35:33;10.88;;;6.60;;
57029;SDS011;42920;45.306;20.448;2023-09-18T09:40:34;12.43;;;6.28;;
57029;SDS011;42920;45.306;20.448;2023-09-18T09:43:03;11.75;;;6.03;;
57029;SDS011;42920;45.306;20.448;2023-09-18T09:45:32;14.15;;;6.55;;
57029;SDS011;42920;45.306;20.448;2023-09-18T09:48:04;11.10;;;6.53;;
57029;SDS011;42920;45.306;20.448;2023-09-18T09:50:31;8.45;;;6.10;;
57029;SDS011;42920;45.306;20.448;2023-09-18T09:52:58;10.65;;;6.55;;
57029;SDS011;42920;45.306;20.448;2023-09-18T09:55:28;12.23;;;6.95;;
57029;SDS011;42920;45.306;20.448;2023-09-18T09:58:03;11.35;;;7.45;;
57029;SDS011;42920;45.306;20.448;2023-09-18T10:03:14;8.40;;;6.20;;
57029;SDS011;42920;45.306;20.448;2023-09-18T10:05:42;14.85;;;7.07;;
57029;SDS011;42920;45.306;20.448;2023-09-18T10:08:27;18.20;;;7.03;;
57029;SDS011;42920;45.306;20.448;2023-09-18T10:10:56;11.88;;;6.10;;
57029;SDS011;42920;45.306;20.448;2023-09-18T10:13:36;10.05;;;6.22;;
57029;SDS011;42920;45.306;20.448;2023-09-18T10:16:11;11.55;;;6.30;;
57029;SDS011;42920;45.306;20.448;2023-09-18T10:18:44;11.02;;;6.25;;
57029;SDS011;42920;45.306;20.448;2023-09-18T10:21:33;16.42;;;6.47;;
57029;SDS011;42920;45.306;20.448;2023-09-18T10:26:44;13.13;;;7.32;;
57029;SDS011;42920;45.306;20.448;2023-09-18T10:29:18;12.48;;;6.18;;
57029;SDS011;42920;45.306;20.448;2023-09-18T10:31:46;12.02;;;7.55;;
57029;SDS011;42920;45.306;20.448;2023-09-18T10:34:13;10.15;;;5.93;;
57029;SDS011;42920;45.306;20.448;2023-09-18T10:36:41;12.73;;;7.15;;
57029;SDS011;42920;45.306;20.448;2023-09-18T10:39:09;11.63;;;6.38;;
57029;SDS011;42920;45.306;20.448;2023-09-18T10:41:37;12.55;;;6.68;;
57029;SDS011;42920;45.306;20.448;2023-09-18T10:44:04;18.67;;;6.57;;
57029;SDS011;42920;45.306;20.448;2023-09-18T10:46:31;7.38;;;5.82;;
57029;SDS011;42920;45.306;20.448;2023-09-18T10:48:58;11.27;;;7.28;;
57029;SDS011;42920;45.306;20.448;2023-09-18T10:51:26;8.88;;;6.25;;
57029;SDS011;42920;45.306;20.448;2023-09-18T10:53:53;9.27;;;5.70;;
57029;SDS011;42920;45.306;20.448;2023-09-18T10:56:21;10.50;;;7.05;;
57029;SDS011;42920;45.306;20.448;2023-09-18T10:58:48;10.30;;;6.80;;
57029;SDS011;42920;45.306;20.448;2023-09-18T11:01:22;13.40;;;6.20;;
57029;SDS011;42920;45.306;20.448;2023-09-18T11:03:50;13.23;;;6.93;;
57029;SDS011;42920;45.306;20.448;2023-09-18T11:06:16;10.93;;;6.78;;
57029;SDS011;42920;45.306;20.448;2023-09-18T11:08:45;8.82;;;5.65;;
57029;SDS011;42920;45.306;20.448;2023-09-18T11:11:12;9.95;;;6.30;;
57029;SDS011;42920;45.306;20.448;2023-09-18T11:13:45;13.60;;;6.75;;
57029;SDS011;42920;45.306;20.448;2023-09-18T11:19:16;9.88;;;6.65;;
57029;SDS011;42920;45.306;20.448;2023-09-18T11:21:42;10.27;;;6.93;;
57029;SDS011;42920;45.306;20.448;2023-09-18T11:24:15;10.27;;;6.80;;
57029;SDS011;42920;45.306;20.448;2023-09-18T11:26:42;13.23;;;6.72;;
57029;SDS011;42920;45.306;20.448;2023-09-18T11:29:10;13.43;;;6.60;;
57029;SDS011;42920;45.306;20.448;2023-09-18T11:34:26;12.98;;;6.35;;
57029;SDS011;42920;45.306;20.448;2023-09-18T11:37:19;12.60;;;7.53;;
57029;SDS011;42920;45.306;20.448;2023-09-18T11:39:46;13.20;;;6.80;;
57029;SDS011;42920;45.306;20.448;2023-09-18T11:42:17;9.27;;;5.93;;
57029;SDS011;42920;45.306;20.448;2023-09-18T11:44:51;14.43;;;6.68;;
57029;SDS011;42920;45.306;20.448;2023-09-18T11:47:18;11.73;;;6.88;;
57029;SDS011;42920;45.306;20.448;2023-09-18T11:49:48;9.95;;;6.70;;
57029;SDS011;42920;45.306;20.448;2023-09-18T11:52:19;9.80;;;6.85;;
57029;SDS011;42920;45.306;20.448;2023-09-18T11:54:46;11.93;;;7.28;;
57029;SDS011;42920;45.306;20.448;2023-09-18T11:57:13;10.15;;;6.50;;
57029;SDS011;42920;45.306;20.448;2023-09-18T11:59:42;11.40;;;6.50;;
57029;SDS011;42920;45.306;20.448;2023-09-18T12:05:19;10.63;;;6.88;;
57029;SDS011;42920;45.306;20.448;2023-09-18T12:07:45;12.20;;;7.07;;
57029;SDS011;42920;45.306;20.448;2023-09-18T12:10:12;13.95;;;7.10;;
57029;SDS011;42920;45.306;20.448;2023-09-18T12:12:41;11.25;;;6.82;;
57029;SDS011;42920;45.306;20.448;2023-09-18T12:15:10;10.70;;;5.88;;
57029;SDS011;42920;45.306;20.448;2023-09-18T12:17:37;15.93;;;7.13;;
57029;SDS011;42920;45.306;20.448;2023-09-18T12:20:03;9.85;;;6.22;;
57029;SDS011;42920;45.306;20.448;2023-09-18T12:22:30;11.15;;;7.07;;
57029;SDS011;42920;45.306;20.448;2023-09-18T12:27:54;12.82;;;6.65;;
57029;SDS011;42920;45.306;20.448;2023-09-18T12:30:21;9.57;;;6.57;;
57029;SDS011;42920;45.306;20.448;2023-09-18T12:32:48;10.85;;;6.95;;
57029;SDS011;42920;45.306;20.448;2023-09-18T12:35:17;10.48;;;6.60;;
57029;SDS011;42920;45.306;20.448;2023-09-18T12:37:43;14.45;;;7.22;;
57029;SDS011;42920;45.306;20.448;2023-09-18T12:40:25;13.45;;;7.07;;
57029;SDS011;42920;45.306;20.448;2023-09-18T12:42:51;19.38;;;7.07;;
57029;SDS011;42920;45.306;20.448;2023-09-18T12:45:18;11.13;;;6.65;;
57029;SDS011;42920;45.306;20.448;2023-09-18T12:47:44;14.25;;;6.68;;
57029;SDS011;42920;45.306;20.448;2023-09-18T12:50:13;12.77;;;6.57;;
57029;SDS011;42920;45.306;20.448;2023-09-18T12:52:40;18.55;;;7.50;;
57029;SDS011;42920;45.306;20.448;2023-09-18T12:55:06;16.45;;;6.22;;
57029;SDS011;42920;45.306;20.448;2023-09-18T12:57:33;13.80;;;6.53;;
57029;SDS011;42920;45.306;20.448;2023-09-18T12:59:59;13.00;;;6.47;;
57029;SDS011;42920;45.306;20.448;2023-09-18T13:02:28;14.63;;;6.82;;
57029;SDS011;42920;45.306;20.448;2023-09-18T13:04:54;14.88;;;6.70;;
57029;SDS011;42920;45.306;20.448;2023-09-18T13:07:21;14.05;;;6.35;;
57029;SDS011;42920;45.306;20.448;2023-09-18T13:10:04;8.63;;;6.82;;
57029;SDS011;42920;45.306;20.448;2023-09-18T13:12:50;10.93;;;7.13;;
57029;SDS011;42920;45.306;20.448;2023-09-18T13:15:30;12.38;;;6.82;;
57029;SDS011;42920;45.306;20.448;2023-09-18T13:17:58;9.77;;;6.40;;
57029;SDS011;42920;45.306;20.448;2023-09-18T13:20:33;12.57;;;6.35;;
57029;SDS011;42920;45.306;20.448;2023-09-18T13:22:59;11.32;;;6.35;;
57029;SDS011;42920;45.306;20.448;2023-09-18T13:25:32;14.27;;;6.35;;
57029;SDS011;42920;45.306;20.448;2023-09-18T13:28:03;11.07;;;7.00;;
57029;SDS011;42920;45.306;20.448;2023-09-18T13:30:30;9.68;;;6.97;;
57029;SDS011;42920;45.306;20.448;2023-09-18T13:33:02;10.02;;;6.50;;
57029;SDS011;42920;45.306;20.448;2023-09-18T13:35:31;9.32;;;5.88;;
57029;SDS011;42920;45.306;20.448;2023-09-18T13:37:57;12.30;;;6.05;;
57029;SDS011;42920;45.306;20.448;2023-09-18T13:40:23;10.00;;;6.90;;
57029;SDS011;42920;45.306;20.448;2023-09-18T13:42:49;14.13;;;6.93;;
57029;SDS011;42920;45.306;20.448;2023-09-18T13:45:15;18.15;;;6.95;;
57029;SDS011;42920;45.306;20.448;2023-09-18T13:47:43;12.15;;;6.22;;
57029;SDS011;42920;45.306;20.448;2023-09-18T13:50:09;7.35;;;5.30;;
57029;SDS011;42920;45.306;20.448;2023-09-18T13:52:36;14.63;;;5.72;;
57029;SDS011;42920;45.306;20.448;2023-09-18T13:55:02;11.93;;;6.57;;
57029;SDS011;42920;45.306;20.448;2023-09-18T13:57:30;11.38;;;7.03;;
57029;SDS011;42920;45.306;20.448;2023-09-18T14:00:05;10.23;;;6.20;;
57029;SDS011;42920;45.306;20.448;2023-09-18T14:02:37;16.33;;;5.93;;
57029;SDS011;42920;45.306;20.448;2023-09-18T14:05:07;12.77;;;6.72;;
57029;SDS011;42920;45.306;20.448;2023-09-18T14:07:34;9.52;;;5.57;;
57029;SDS011;42920;45.306;20.448;2023-09-18T14:10:00;14.43;;;5.88;;
57029;SDS011;42920;45.306;20.448;2023-09-18T14:12:30;11.15;;;5.90;;
57029;SDS011;42920;45.306;20.448;2023-09-18T14:14:56;9.57;;;6.30;;
57029;SDS011;42920;45.306;20.448;2023-09-18T14:17:22;16.63;;;5.82;;
57029;SDS011;42920;45.306;20.448;2023-09-18T14:19:48;8.88;;;5.85;;
57029;SDS011;42920;45.306;20.448;2023-09-18T14:22:14;13.20;;;6.25;;
57029;SDS011;42920;45.306;20.448;2023-09-18T14:24:40;10.07;;;5.13;;
57029;SDS011;42920;45.306;20.448;2023-09-18T14:27:06;9.25;;;6.00;;
57029;SDS011;42920;45.306;20.448;2023-09-18T14:29:32;10.73;;;5.90;;
57029;SDS011;42920;45.306;20.448;2023-09-18T14:31:59;24.30;;;6.43;;
57029;SDS011;42920;45.306;20.448;2023-09-18T14:34:25;11.38;;;6.25;;
57029;SDS011;42920;45.306;20.448;2023-09-18T14:36:51;17.83;;;6.65;;
57029;SDS011;42920;45.306;20.448;2023-09-18T14:39:17;11.65;;;5.90;;
57029;SDS011;42920;45.306;20.448;2023-09-18T14:41:43;9.85;;;5.85;;
57029;SDS011;42920;45.306;20.448;2023-09-18T14:44:09;8.73;;;6.13;;